createdAt,value
2023-01-07T00:01:35.164Z,54.95
2023-01-07T00:04:01.673Z,55.00
2023-01-07T00:06:33.114Z,54.95
2023-01-07T00:08:59.448Z,54.94
2023-01-07T00:11:26.639Z,54.90
2023-01-07T00:13:53.215Z,55.12
2023-01-07T00:16:20.390Z,54.81
2023-01-07T00:18:50.469Z,55.01
2023-01-07T00:21:17.102Z,54.91
2023-01-07T00:23:43.764Z,55.10
2023-01-07T00:26:10.770Z,54.96
2023-01-07T00:28:37.792Z,54.96
2023-01-07T00:31:05.113Z,54.90
2023-01-07T00:33:31.476Z,55.03
2023-01-07T00:36:01.780Z,55.11
2023-01-07T00:38:28.158Z,55.06
2023-01-07T00:40:54.486Z,54.90
2023-01-07T00:43:20.846Z,55.00
2023-01-07T00:45:47.166Z,54.91
2023-01-07T00:48:13.491Z,54.88
2023-01-07T00:50:42.731Z,54.88
2023-01-07T00:53:09.476Z,54.90
2023-01-07T00:55:35.805Z,55.02
2023-01-07T00:58:02.198Z,54.88
2023-01-07T01:00:28.582Z,55.03
2023-01-07T01:02:59.435Z,55.04
2023-01-07T01:05:25.792Z,54.95
2023-01-07T01:07:52.775Z,55.14
2023-01-07T01:10:19.292Z,55.04
2023-01-07T01:12:49.740Z,54.93
2023-01-07T01:15:16.370Z,55.07
2023-01-07T01:17:42.719Z,55.18
2023-01-07T01:20:11.019Z,55.01
2023-01-07T01:22:37.479Z,55.07
2023-01-07T01:25:07.112Z,55.00
2023-01-07T01:27:33.479Z,55.00
2023-01-07T01:29:59.828Z,55.27
2023-01-07T01:32:27.281Z,55.31
2023-01-07T01:34:54.226Z,55.22
2023-01-07T01:37:20.765Z,55.32
2023-01-07T01:39:48.010Z,55.40
2023-01-07T01:42:15.210Z,55.40
2023-01-07T01:44:53.924Z,55.55
2023-01-07T01:47:47.046Z,55.41
2023-01-07T01:50:24.869Z,56.15
2023-01-07T01:53:01.535Z,55.62
2023-01-07T01:55:30.712Z,55.72
2023-01-07T01:57:59.373Z,55.75
2023-01-07T02:00:25.771Z,55.83
2023-01-07T02:02:54.467Z,56.09
2023-01-07T02:05:20.879Z,55.86
2023-01-07T02:07:47.230Z,55.92
2023-01-07T02:10:15.437Z,55.97
2023-01-07T02:12:57.083Z,55.78
2023-01-07T02:15:32.308Z,55.67
2023-01-07T02:18:05.036Z,55.77
2023-01-07T02:20:31.312Z,55.77
2023-01-07T02:23:03.428Z,55.79
2023-01-07T02:25:42.095Z,55.86
2023-01-07T02:28:27.047Z,55.82
2023-01-07T02:30:53.317Z,55.66
2023-01-07T02:33:39.207Z,55.63
2023-01-07T02:36:08.173Z,55.73
2023-01-07T02:38:37.654Z,55.70
2023-01-07T02:41:14.147Z,55.71
2023-01-07T02:43:44.447Z,55.71
2023-01-07T02:46:18.155Z,55.58
2023-01-07T02:48:44.481Z,55.58
2023-01-07T02:51:10.833Z,55.55
2023-01-07T02:53:37.355Z,55.55
2023-01-07T02:56:06.824Z,55.47
2023-01-07T02:58:44.655Z,55.65
2023-01-07T03:05:29.310Z,55.58
2023-01-07T03:08:02.227Z,55.41
2023-01-07T03:10:38.047Z,55.50
2023-01-07T03:13:05.279Z,55.36
2023-01-07T03:15:34.517Z,55.48
2023-01-07T03:18:00.787Z,55.47
2023-01-07T03:20:27.097Z,55.50
2023-01-07T03:22:53.824Z,55.52
2023-01-07T03:25:20.672Z,55.29
2023-01-07T03:27:47.019Z,55.36
2023-01-07T03:30:13.894Z,55.52
2023-01-07T03:32:49.161Z,55.48
2023-01-07T03:35:15.495Z,55.39
2023-01-07T03:37:42.361Z,55.49
2023-01-07T03:40:10.627Z,55.46
2023-01-07T03:42:41.986Z,55.34
2023-01-07T03:45:14.305Z,55.30
2023-01-07T03:47:41.551Z,55.28
2023-01-07T03:50:08.082Z,55.38
2023-01-07T03:52:38.865Z,55.49
2023-01-07T03:55:05.451Z,55.60
2023-01-07T03:57:32.395Z,55.36
2023-01-07T04:00:01.088Z,55.52
2023-01-07T04:02:30.019Z,55.39
2023-01-07T04:04:56.993Z,55.48
2023-01-07T04:07:23.493Z,55.47
2023-01-07T04:09:50.780Z,55.53
2023-01-07T04:12:17.356Z,55.79
2023-01-07T04:14:44.550Z,55.78
2023-01-07T04:17:11.611Z,55.57
2023-01-07T04:19:38.665Z,55.35
2023-01-07T04:22:05.963Z,55.74
2023-01-07T04:24:33.144Z,55.63
2023-01-07T04:26:59.569Z,55.44
2023-01-07T04:29:26.035Z,55.32
2023-01-07T04:31:52.465Z,55.49
2023-01-07T04:34:19.236Z,55.46
2023-01-07T04:36:45.566Z,55.54
2023-01-07T04:39:12.502Z,55.51
2023-01-07T04:41:38.939Z,55.62
2023-01-07T04:44:05.600Z,55.64
2023-01-07T04:46:33.331Z,55.57
2023-01-07T04:48:59.734Z,55.45
2023-01-07T04:51:26.107Z,55.44
2023-01-07T04:53:52.603Z,55.64
2023-01-07T04:56:18.965Z,55.42
2023-01-07T04:58:46.613Z,55.44
2023-01-07T05:01:13.458Z,55.31
2023-01-07T05:03:40.089Z,55.61
2023-01-07T05:06:09.250Z,55.45
2023-01-07T05:08:37.315Z,55.43
2023-01-07T05:11:04.945Z,55.51
2023-01-07T05:13:32.139Z,55.64
2023-01-07T05:16:00.265Z,55.56
2023-01-07T05:18:26.829Z,55.53
2023-01-07T05:20:53.187Z,55.68
2023-01-07T05:23:19.665Z,55.57
2023-01-07T05:25:47.574Z,55.46
2023-01-07T05:28:13.928Z,55.46
2023-01-07T05:30:41.209Z,55.49
2023-01-07T05:33:07.747Z,55.41
2023-01-07T05:35:38.331Z,55.45
2023-01-07T05:38:05.623Z,55.44
2023-01-07T05:40:32.404Z,55.61
2023-01-07T05:42:58.768Z,55.61
2023-01-07T05:45:27.258Z,55.53
2023-01-07T05:47:53.574Z,55.37
2023-01-07T05:50:19.892Z,55.49
2023-01-07T05:52:46.287Z,55.45
2023-01-07T05:55:15.290Z,55.60
2023-01-07T05:57:41.626Z,55.64
2023-01-07T06:00:10.254Z,55.51
2023-01-07T06:02:39.307Z,55.42
2023-01-07T06:05:05.841Z,55.37
2023-01-07T06:07:32.220Z,55.37
2023-01-07T06:09:58.579Z,55.34
2023-01-07T06:12:24.956Z,55.74
2023-01-07T06:14:51.298Z,55.49
2023-01-07T06:17:17.644Z,55.70
2023-01-07T06:19:43.976Z,55.90
2023-01-07T06:22:10.297Z,55.70
2023-01-07T06:24:36.652Z,55.66
2023-01-07T06:27:02.975Z,55.97
2023-01-07T06:29:32.288Z,55.88
2023-01-07T06:31:58.617Z,55.89
2023-01-07T06:34:24.992Z,54.74
2023-01-07T06:36:51.366Z,53.82
2023-01-07T06:39:17.686Z,53.77
2023-01-07T06:41:44.015Z,53.26
2023-01-07T06:44:10.339Z,52.47
2023-01-07T06:46:36.711Z,51.61
2023-01-07T06:49:03.183Z,51.93
2023-01-07T06:51:29.512Z,51.95
2023-01-07T06:54:07.730Z,52.30
2023-01-07T06:56:34.055Z,52.80
2023-01-07T06:59:00.405Z,52.94
2023-01-07T07:01:26.857Z,52.96
2023-01-07T07:03:53.213Z,53.30
2023-01-07T07:06:19.539Z,53.40
2023-01-07T07:08:45.866Z,53.23
2023-01-07T07:11:12.230Z,53.44
2023-01-07T07:13:38.554Z,53.73
2023-01-07T07:16:04.977Z,53.91
2023-01-07T07:18:31.332Z,54.09
2023-01-07T07:20:58.661Z,54.31
2023-01-07T07:23:25.022Z,54.65
2023-01-07T07:25:51.341Z,54.29
2023-01-07T07:28:17.662Z,54.51
2023-01-07T07:30:47.204Z,52.77
2023-01-07T07:33:14.985Z,52.89
2023-01-07T07:35:41.415Z,53.44
2023-01-07T07:38:07.778Z,54.12
2023-01-07T07:40:34.104Z,53.89
2023-01-07T07:43:10.752Z,53.90
2023-01-07T07:45:38.939Z,54.05
2023-01-07T07:48:05.765Z,54.27
2023-01-07T07:50:32.114Z,54.64
2023-01-07T07:52:58.455Z,54.70
2023-01-07T07:55:26.276Z,54.72
2023-01-07T07:57:53.754Z,54.78
2023-01-07T08:00:20.075Z,54.96
2023-01-07T08:02:46.416Z,54.95
2023-01-07T08:05:12.794Z,54.90
2023-01-07T08:07:39.343Z,54.90
2023-01-07T08:10:05.935Z,55.05
2023-01-07T08:12:32.278Z,55.08
2023-01-07T08:14:58.615Z,55.08
2023-01-07T08:17:25.018Z,55.13
2023-01-07T08:19:51.367Z,55.20
2023-01-07T08:22:17.701Z,55.21
2023-01-07T08:24:44.044Z,55.04
2023-01-07T08:27:10.378Z,55.36
2023-01-07T08:29:36.727Z,55.37
2023-01-07T08:32:03.074Z,55.02
2023-01-07T08:34:29.407Z,55.31
2023-01-07T08:36:55.724Z,55.20
2023-01-07T08:39:22.064Z,55.16
2023-01-07T08:41:48.389Z,55.04
2023-01-07T08:44:14.762Z,55.22
2023-01-07T08:46:42.757Z,55.13
2023-01-07T08:49:09.813Z,55.21
2023-01-07T08:51:36.320Z,55.38
2023-01-07T08:54:02.660Z,55.31
2023-01-07T08:56:29.046Z,55.25
2023-01-07T08:58:55.383Z,55.42
2023-01-07T09:01:21.835Z,55.38
2023-01-07T09:03:48.219Z,55.19
2023-01-07T09:06:14.544Z,55.01
2023-01-07T09:08:41.021Z,55.35
2023-01-07T09:11:07.357Z,55.27
2023-01-07T09:13:33.678Z,55.24
2023-01-07T09:16:00.250Z,55.25
2023-01-07T09:18:26.627Z,55.47
2023-01-07T09:20:52.949Z,55.27
2023-01-07T09:23:19.331Z,55.30
2023-01-07T09:25:45.659Z,55.22
2023-01-07T09:28:12.013Z,55.25
2023-01-07T09:30:38.393Z,55.51
2023-01-07T09:33:04.727Z,55.17
2023-01-07T09:35:31.055Z,55.43
2023-01-07T09:37:57.405Z,55.46
2023-01-07T09:40:31.175Z,55.33
2023-01-07T09:42:58.875Z,55.35
2023-01-07T09:45:26.461Z,55.23
2023-01-07T09:47:59.679Z,55.19
2023-01-07T09:50:26.017Z,55.16
2023-01-07T09:52:53.565Z,55.20
2023-01-07T09:55:24.469Z,55.22
2023-01-07T09:57:50.811Z,55.12
2023-01-07T10:00:18.022Z,55.23
2023-01-07T10:02:53.519Z,55.32
2023-01-07T10:05:38.346Z,55.40
2023-01-07T10:08:29.788Z,55.34
2023-01-07T10:11:00.841Z,55.15
2023-01-07T10:13:45.666Z,55.45
2023-01-07T10:16:18.090Z,55.18
2023-01-07T10:18:53.658Z,55.14
2023-01-07T10:21:46.134Z,55.31
2023-01-07T10:24:28.602Z,55.06
2023-01-07T10:26:59.257Z,55.11
2023-01-07T10:29:28.484Z,55.22
2023-01-07T10:31:55.012Z,55.33
2023-01-07T10:34:25.123Z,55.29
2023-01-07T10:37:07.294Z,55.27
2023-01-07T10:39:38.598Z,55.10
2023-01-07T10:42:06.605Z,55.20
2023-01-07T10:44:51.916Z,55.36
2023-01-07T10:47:25.638Z,55.08
2023-01-07T10:50:10.659Z,55.08
2023-01-07T10:52:45.208Z,55.30
2023-01-07T10:55:29.607Z,55.31
2023-01-07T10:57:55.999Z,55.28
2023-01-07T11:00:22.331Z,55.32
2023-01-07T11:02:50.925Z,55.20
2023-01-07T11:05:24.074Z,55.23
2023-01-07T11:07:51.220Z,55.36
2023-01-07T11:10:24.361Z,55.13
2023-01-07T11:12:52.323Z,55.24
2023-01-07T11:15:20.421Z,55.21
2023-01-07T11:17:48.982Z,55.37
2023-01-07T11:20:19.524Z,55.34
2023-01-07T11:22:45.855Z,55.52
2023-01-07T11:25:22.254Z,55.26
2023-01-07T11:27:48.623Z,55.48
2023-01-07T11:30:21.838Z,55.56
2023-01-07T11:32:54.183Z,55.39
2023-01-07T11:35:22.727Z,55.41
2023-01-07T11:37:49.427Z,55.58
2023-01-07T11:40:15.696Z,55.41
2023-01-07T11:42:48.820Z,55.65
2023-01-07T11:45:21.302Z,55.52
2023-01-07T11:47:48.758Z,55.35
2023-01-07T11:50:21.748Z,55.37
2023-01-07T11:53:00.753Z,55.29
2023-01-07T11:55:27.096Z,55.58
2023-01-07T11:57:56.816Z,55.28
2023-01-07T12:00:31.489Z,55.25
2023-01-07T12:03:01.858Z,55.46
2023-01-07T12:05:28.235Z,55.12
2023-01-07T12:07:54.570Z,55.30
2023-01-07T12:10:24.547Z,55.26
2023-01-07T12:12:50.905Z,55.36
2023-01-07T12:15:20.870Z,55.39
2023-01-07T12:17:47.560Z,55.49
2023-01-07T12:20:25.901Z,55.44
2023-01-07T12:23:10.963Z,55.43
2023-01-07T12:25:37.232Z,55.71
2023-01-07T12:28:09.773Z,55.44
2023-01-07T12:30:55.042Z,56.29
2023-01-07T12:33:30.614Z,55.88
2023-01-07T12:36:01.307Z,55.73
2023-01-07T12:38:32.565Z,55.79
2023-01-07T12:41:00.288Z,56.33
2023-01-07T12:43:33.666Z,56.48
2023-01-07T12:46:00.875Z,56.37
2023-01-07T12:48:29.068Z,57.16
2023-01-07T12:50:55.649Z,57.30
2023-01-07T12:53:27.931Z,57.32
2023-01-07T12:55:58.479Z,57.45
2023-01-07T12:58:44.644Z,57.35
2023-01-07T13:01:19.490Z,58.09
2023-01-07T13:03:59.436Z,58.03
2023-01-07T13:06:42.652Z,58.68
2023-01-07T13:09:12.416Z,58.94
2023-01-07T13:12:01.437Z,59.17
2023-01-07T13:14:29.287Z,60.47
2023-01-07T13:16:59.106Z,59.91
2023-01-07T13:19:25.502Z,60.71
2023-01-07T13:21:51.837Z,61.15
2023-01-07T13:24:55.226Z,61.64
2023-01-07T13:27:20.733Z,61.38
2023-01-07T13:30:10.819Z,61.18
2023-01-07T13:32:40.002Z,61.32
2023-01-07T13:35:25.151Z,61.37
2023-01-07T13:37:55.519Z,60.95
2023-01-07T13:40:23.895Z,61.64
2023-01-07T13:42:59.328Z,61.34
2023-01-07T13:45:26.437Z,61.21
2023-01-07T13:47:56.869Z,61.26
2023-01-07T13:50:35.686Z,61.10
2023-01-07T13:53:03.176Z,60.96
2023-01-07T13:55:31.067Z,60.80
2023-01-07T13:57:57.396Z,56.03
2023-01-07T14:00:42.940Z,53.30
2023-01-07T14:03:28.493Z,50.97
2023-01-07T14:06:13.707Z,50.75
2023-01-07T14:08:40.082Z,54.67
2023-01-07T14:11:06.441Z,55.14
2023-01-07T14:13:33.756Z,55.59
2023-01-07T14:16:05.200Z,54.86
2023-01-07T14:18:44.605Z,55.34
2023-01-07T14:21:15.433Z,54.84
2023-01-07T14:24:05.089Z,54.58
2023-01-07T14:26:36.761Z,54.63
2023-01-07T14:29:15.119Z,54.68
2023-01-07T14:31:41.465Z,54.44
2023-01-07T14:34:08.587Z,54.37
2023-01-07T14:36:53.869Z,54.42
2023-01-07T14:39:29.578Z,53.74
2023-01-07T14:42:14.648Z,53.56
2023-01-07T14:44:40.985Z,53.23
2023-01-07T14:47:10.612Z,53.04
2023-01-07T14:49:43.135Z,52.99
2023-01-07T14:52:16.255Z,53.07
2023-01-07T14:55:05.284Z,53.24
2023-01-07T14:57:41.162Z,53.30
2023-01-07T15:00:32.557Z,53.96
2023-01-07T15:03:37.452Z,54.04
2023-01-07T15:06:06.637Z,54.23
2023-01-07T15:09:02.635Z,54.30
2023-01-07T15:11:47.764Z,53.56
2023-01-07T15:14:43.351Z,53.38
2023-01-07T15:17:11.297Z,53.69
2023-01-07T15:19:48.723Z,53.70
2023-01-07T15:22:38.778Z,53.76
2023-01-07T15:25:20.163Z,53.92
2023-01-07T15:27:49.496Z,53.81
2023-01-07T15:30:15.755Z,53.88
2023-01-07T15:32:42.023Z,54.38
2023-01-07T15:35:24.042Z,54.87
2023-01-07T15:37:53.429Z,54.90
2023-01-07T15:40:20.412Z,54.99
2023-01-07T15:42:47.094Z,55.24
2023-01-07T15:45:17.394Z,55.46
2023-01-07T15:47:43.756Z,53.98
2023-01-07T15:50:23.687Z,54.23
2023-01-07T15:52:50.493Z,54.33
2023-01-07T15:55:33.008Z,54.62
2023-01-07T15:58:06.111Z,54.73
2023-01-07T16:00:33.012Z,54.94
2023-01-07T16:02:59.365Z,54.69
2023-01-07T16:05:26.355Z,54.72
2023-01-07T16:07:56.695Z,52.07
2023-01-07T16:10:22.948Z,51.05
2023-01-07T16:13:21.461Z,50.74
2023-01-07T16:15:52.801Z,51.92
2023-01-07T16:18:19.194Z,52.68
2023-01-07T16:20:50.309Z,53.21
2023-01-07T16:23:18.192Z,53.61
2023-01-07T16:25:51.924Z,53.78
2023-01-07T16:28:22.051Z,54.10
2023-01-07T16:30:48.771Z,54.04
2023-01-07T16:33:16.086Z,54.43
2023-01-07T16:35:42.421Z,54.57
2023-01-07T16:38:08.781Z,54.08
2023-01-07T16:40:38.081Z,54.48
2023-01-07T16:43:04.722Z,54.58
2023-01-07T16:45:32.439Z,54.83
2023-01-07T16:48:02.633Z,55.01
2023-01-07T16:50:30.288Z,54.97
2023-01-07T16:52:56.714Z,55.13
2023-01-07T16:55:42.915Z,54.99
2023-01-07T16:58:15.870Z,55.32
2023-01-07T17:00:47.862Z,55.56
2023-01-07T17:03:14.203Z,55.27
2023-01-07T17:05:40.521Z,55.44
2023-01-07T17:08:07.746Z,55.31
2023-01-07T17:10:34.997Z,55.27
2023-01-07T17:13:27.654Z,55.51
2023-01-07T17:16:13.870Z,55.55
2023-01-07T17:18:40.254Z,55.53
2023-01-07T17:21:13.348Z,55.35
2023-01-07T17:23:40.838Z,55.03
2023-01-07T17:26:15.850Z,55.08
2023-01-07T17:28:49.601Z,55.37
2023-01-07T17:31:15.976Z,55.10
2023-01-07T17:34:13.772Z,55.42
2023-01-07T17:36:40.089Z,55.68
2023-01-07T17:39:06.491Z,55.43
2023-01-07T17:41:52.387Z,55.66
2023-01-07T17:44:18.704Z,55.83
2023-01-07T17:46:45.061Z,55.30
2023-01-07T17:49:11.518Z,55.50
2023-01-07T17:51:38.595Z,55.65
2023-01-07T17:54:06.652Z,55.50
2023-01-07T17:56:33.236Z,55.63
2023-01-07T17:58:59.559Z,55.47
2023-01-07T18:01:26.033Z,55.45
2023-01-07T18:03:52.577Z,55.49
2023-01-07T18:06:19.562Z,55.46
2023-01-07T18:08:46.314Z,55.64
2023-01-07T18:11:32.360Z,54.12
2023-01-07T18:13:58.715Z,54.14
2023-01-07T18:16:25.134Z,53.78
2023-01-07T18:18:51.498Z,53.38
2023-01-07T18:21:17.872Z,52.46
2023-01-07T18:23:45.877Z,53.00
2023-01-07T18:26:12.483Z,53.36
2023-01-07T18:28:41.724Z,53.67
2023-01-07T18:31:08.062Z,53.70
2023-01-07T18:33:35.326Z,53.65
2023-01-07T18:36:01.827Z,53.46
2023-01-07T18:38:28.250Z,53.46
2023-01-07T18:40:54.962Z,53.43
2023-01-07T18:43:21.335Z,53.71
2023-01-07T18:45:50.435Z,53.76
2023-01-07T18:48:17.263Z,53.86
2023-01-07T18:50:47.964Z,53.85
2023-01-07T18:53:14.498Z,54.00
2023-01-07T18:55:41.009Z,54.14
2023-01-07T18:58:07.758Z,54.32
2023-01-07T19:00:34.221Z,54.46
2023-01-07T19:03:00.695Z,54.68
2023-01-07T19:05:27.282Z,54.75
2023-01-07T19:07:55.323Z,54.86
2023-01-07T19:10:24.788Z,54.73
2023-01-07T19:12:51.294Z,54.91
2023-01-07T19:15:20.749Z,54.91
2023-01-07T19:17:47.084Z,55.07
2023-01-07T19:20:15.219Z,55.00
2023-01-07T19:22:41.690Z,55.33
2023-01-07T19:25:08.028Z,55.34
2023-01-07T19:27:49.435Z,55.19
2023-01-07T19:30:15.754Z,55.30
2023-01-07T19:32:42.130Z,55.32
2023-01-07T19:35:08.490Z,55.06
2023-01-07T19:37:38.099Z,55.13
2023-01-07T19:40:05.010Z,55.57
2023-01-07T19:42:31.807Z,55.37
2023-01-07T19:44:58.150Z,55.24
2023-01-07T19:47:27.623Z,55.38
2023-01-07T19:49:53.951Z,55.49
2023-01-07T19:52:20.337Z,55.47
2023-01-07T19:54:46.753Z,55.56
2023-01-07T19:57:13.107Z,55.36
2023-01-07T19:59:39.436Z,55.67
2023-01-07T20:02:05.915Z,55.78
2023-01-07T20:04:32.369Z,55.79
2023-01-07T20:07:01.700Z,55.64
2023-01-07T20:09:28.028Z,55.95
2023-01-07T20:11:54.340Z,55.63
2023-01-07T20:14:20.679Z,55.65
2023-01-07T20:16:47.123Z,55.60
2023-01-07T20:19:13.646Z,55.69
2023-01-07T20:21:42.980Z,55.70
2023-01-07T20:24:09.322Z,55.65
2023-01-07T20:26:36.515Z,55.69
2023-01-07T20:29:02.862Z,55.73
2023-01-07T20:31:29.678Z,55.86
2023-01-07T20:33:56.117Z,55.52
2023-01-07T20:36:26.934Z,55.91
2023-01-07T20:38:53.328Z,55.68
2023-01-07T20:41:20.503Z,55.89
2023-01-07T20:43:50.498Z,55.93
2023-01-07T20:46:16.877Z,55.78
2023-01-07T20:48:43.364Z,55.69
2023-01-07T20:51:09.711Z,55.53
2023-01-07T20:53:42.798Z,55.63
2023-01-07T20:56:12.513Z,55.78
2023-01-07T20:58:38.874Z,55.52
2023-01-07T21:01:09.065Z,55.66
2023-01-07T21:03:35.633Z,56.04
2023-01-07T21:06:01.966Z,56.70
2023-01-07T21:08:28.467Z,56.69
2023-01-07T21:10:54.797Z,56.83
2023-01-07T21:13:21.157Z,56.97
2023-01-07T21:15:47.481Z,56.84
2023-01-07T21:18:13.812Z,57.14
2023-01-07T21:20:40.356Z,56.79
2023-01-07T21:23:06.887Z,57.01
2023-01-07T21:25:33.214Z,57.05
2023-01-07T21:27:59.553Z,57.16
2023-01-07T21:30:28.177Z,57.41
2023-01-07T21:32:58.016Z,57.12
2023-01-07T21:35:24.363Z,57.01
2023-01-07T21:37:54.099Z,57.23
2023-01-07T21:40:20.611Z,57.23
2023-01-07T21:42:46.947Z,57.25
2023-01-07T21:45:19.786Z,57.24
2023-01-07T21:47:46.129Z,57.10
2023-01-07T21:50:14.911Z,57.25
2023-01-07T21:52:41.245Z,57.20
2023-01-07T21:55:07.952Z,57.21
2023-01-07T21:57:35.540Z,57.06
2023-01-07T22:00:01.883Z,57.04
2023-01-07T22:02:38.452Z,57.02
2023-01-07T22:05:04.896Z,57.11
2023-01-07T22:07:31.216Z,57.15
2023-01-07T22:09:57.547Z,57.10
2023-01-07T22:12:25.593Z,57.19
2023-01-07T22:14:51.939Z,57.19
2023-01-07T22:17:18.778Z,57.04
2023-01-07T22:19:45.113Z,57.29
2023-01-07T22:22:11.447Z,56.91
2023-01-07T22:24:37.842Z,57.23
2023-01-07T22:27:07.049Z,57.18
2023-01-07T22:29:33.940Z,57.17
2023-01-07T22:32:00.369Z,57.27
2023-01-07T22:34:26.691Z,57.20
2023-01-07T22:36:54.443Z,57.08
2023-01-07T22:39:31.355Z,57.31
2023-01-07T22:41:59.212Z,56.99
2023-01-07T22:44:55.135Z,57.41
2023-01-07T22:47:22.298Z,57.15
2023-01-07T22:49:48.623Z,57.23
2023-01-07T22:52:14.946Z,57.25
2023-01-07T22:54:43.980Z,57.13
2023-01-07T22:57:10.522Z,57.29
2023-01-07T22:59:39.726Z,57.21
2023-01-07T23:02:06.191Z,57.15
2023-01-07T23:04:32.576Z,56.99
2023-01-07T23:06:59.028Z,57.17
2023-01-07T23:09:25.371Z,57.01
2023-01-07T23:11:51.884Z,57.04
2023-01-07T23:14:18.853Z,57.16
2023-01-07T23:16:48.066Z,57.26
2023-01-07T23:19:14.478Z,57.42
2023-01-07T23:21:44.692Z,57.40
2023-01-07T23:24:14.321Z,57.22
2023-01-07T23:26:40.922Z,57.13
2023-01-07T23:29:07.262Z,57.48
2023-01-07T23:31:33.862Z,57.26
2023-01-07T23:34:00.410Z,57.34
2023-01-07T23:36:26.770Z,57.22
2023-01-07T23:38:53.169Z,57.26
2023-01-07T23:41:19.508Z,57.04
2023-01-07T23:43:45.846Z,57.15
2023-01-07T23:46:12.236Z,57.07
2023-01-07T23:48:44.676Z,57.01
2023-01-07T23:51:14.939Z,57.07
2023-01-07T23:53:41.275Z,57.20
2023-01-07T23:56:07.781Z,57.13
2023-01-07T23:58:34.188Z,57.20
